Terminal Aerodrome Forecast
Issued by NWS

Home | Current Version | Previous Version | Text Only | Print | Product List | Glossary On
Versions: 1 2 3 4 5 6 7 8 9 10 11 12 13 14 15
819
FTUS43 KOAX 281722
TAFBFF
TAF
KBFF 281722Z 2818/2918 10015KT 4SM -RA BR OVC008
      TEMPO 2818/2822 1/2SM -RA FG OVC005
     FM282200 09014G22KT 1/2SM -RA FG OVC005
     FM290300 07008KT 1SM -RA OVC007
     FM291000 03006KT 3SM -SN OVC007
     FM291500 35010KT P6SM OVC015=

USA.gov is the U.S. government's official web portal to all federal, state and local government web resources and services.